Time;durP1;ratioP1;P1;durP2;ratioP2;P2;SDS_P1;SDS_P2;PMS_P1;PMS_P2;Temp;Humidity;BMP_temperature;BMP_pressure;BME280_temperature;BME280_humidity;BME280_pressure;Samples;Min_cycle;Max_cycle;Signal;HPM_P1;HPM_P2
2021/05/23 00:01:05;;;;;;;3.60;1.10;;;;;;;9.46;73.96;100291.28;5032289;28;20471;-48
2021/05/23 00:03:31;;;;;;;3.08;1.38;;;;;;;9.37;75.21;100299.16;5028840;28;20037;-53
2021/05/23 00:05:57;;;;;;;2.22;1.10;;;;;;;9.61;72.83;100285.09;5027437;28;20103;-52
2021/05/23 00:08:24;;;;;;;1.55;1.20;;;;;;;9.40;75.77;100291.31;5027928;28;20392;-49
2021/05/23 00:11:00;;;;;;;3.05;1.20;;;;;;;9.54;73.79;100284.25;5030705;28;20036;-50
2021/05/23 00:13:30;;;;;;;2.10;1.10;;;;;;;9.44;74.70;100282.59;5030208;28;20048;-48
2021/05/23 00:16:04;;;;;;;5.45;1.50;;;;;;;9.48;73.55;100280.81;5031346;28;20064;-47
2021/05/23 00:18:34;;;;;;;3.33;1.30;;;;;;;9.48;73.08;100284.28;5030058;28;20090;-52
2021/05/23 00:21:01;;;;;;;2.38;1.27;;;;;;;9.51;73.01;100286.00;5026813;28;20064;-50
2021/05/23 00:23:28;;;;;;;2.70;1.13;;;;;;;9.43;74.24;100290.41;5028494;28;20069;-49
2021/05/23 00:25:53;;;;;;;3.05;1.40;;;;;;;9.55;73.21;100285.13;5032795;28;20462;-51
2021/05/23 00:28:20;;;;;;;2.97;1.30;;;;;;;9.24;75.69;100292.28;5029619;28;20137;-49
2021/05/23 00:30:46;;;;;;;2.10;1.17;;;;;;;9.11;77.35;100287.13;5029578;28;20543;-50
2021/05/23 00:33:12;;;;;;;3.28;1.50;;;;;;;9.43;74.84;100287.81;5029609;28;20098;-50
2021/05/23 00:35:39;;;;;;;2.05;1.10;;;;;;;9.30;75.55;100289.63;5027851;28;20037;-51
2021/05/23 00:38:06;;;;;;;3.13;1.30;;;;;;;9.31;75.92;100287.00;5029706;28;20086;-49
2021/05/23 00:40:34;;;;;;;2.72;1.38;;;;;;;9.32;74.49;100286.13;5034156;28;20033;-51
2021/05/23 00:42:59;;;;;;;5.18;1.70;;;;;;;9.43;74.47;100293.03;5045476;28;20496;-49
2021/05/23 00:45:26;;;;;;;2.80;1.27;;;;;;;9.43;74.37;100293.91;5027703;28;20049;-51
2021/05/23 00:47:52;;;;;;;2.15;1.20;;;;;;;9.42;74.42;100288.69;5029436;28;20044;-48
2021/05/23 00:50:24;;;;;;;2.70;1.45;;;;;;;9.48;73.54;100299.94;5029357;28;20163;-48
2021/05/23 00:52:51;;;;;;;3.15;1.30;;;;;;;9.54;73.09;100305.13;5032226;28;20025;-48
2021/05/23 00:55:19;;;;;;;2.95;1.40;;;;;;;9.61;72.62;100305.97;5030209;28;20315;-48
2021/05/23 00:57:44;;;;;;;2.83;1.33;;;;;;;9.59;72.75;100304.25;5029562;28;20321;-51
2021/05/23 01:00:10;;;;;;;4.30;1.38;;;;;;;9.52;73.58;100304.25;5030796;28;20029;-51
2021/05/23 01:02:41;;;;;;;3.80;1.55;;;;;;;9.42;73.83;100304.34;5028112;28;20063;-49
2021/05/23 01:05:08;;;;;;;2.25;1.30;;;;;;;9.30;74.69;100302.66;5031629;28;20074;-49
2021/05/23 01:07:34;;;;;;;2.38;1.30;;;;;;;9.36;74.70;100308.72;5032557;28;20028;-50
2021/05/23 01:10:09;;;;;;;2.25;1.10;;;;;;;9.54;73.41;100307.75;5032097;28;20029;-49
2021/05/23 01:12:53;;;;;;;3.75;1.23;;;;;;;9.39;74.06;100318.28;5028349;28;20681;-49
2021/05/23 01:15:28;;;;;;;4.82;1.42;;;;;;;9.38;73.90;100316.53;5031171;28;20047;-48
2021/05/23 01:17:57;;;;;;;2.60;1.52;;;;;;;9.39;74.02;100313.06;5028930;28;20057;-50
2021/05/23 01:20:44;;;;;;;4.55;1.60;;;;;;;9.32;74.71;100316.59;5015724;28;20594;-48
2021/05/23 01:23:18;;;;;;;3.92;1.50;;;;;;;9.32;74.03;100316.59;4996009;28;20385;-48
2021/05/23 01:25:46;;;;;;;2.65;1.58;;;;;;;9.31;73.95;100313.09;5032712;28;20040;-51
2021/05/23 01:28:14;;;;;;;3.00;1.52;;;;;;;9.06;75.76;100317.56;5030824;28;20055;-50
2021/05/23 01:30:46;;;;;;;2.85;1.30;;;;;;;9.41;73.56;100305.22;5029818;28;20110;-49
2021/05/23 01:33:18;;;;;;;4.50;1.60;;;;;;;9.29;73.51;100307.03;5028816;28;20094;-50
2021/05/23 01:35:51;;;;;;;3.75;1.40;;;;;;;9.15;75.17;100314.03;5031826;28;20036;-52
2021/05/23 01:38:19;;;;;;;4.90;1.90;;;;;;;9.14;74.90;100314.94;5030426;28;20546;-52
2021/05/23 01:40:47;;;;;;;4.10;1.45;;;;;;;9.43;73.54;100309.56;5031562;28;20052;-49
2021/05/23 01:43:16;;;;;;;4.85;1.45;;;;;;;9.40;74.17;100314.81;5031196;28;20045;-48
2021/05/23 01:45:42;;;;;;;2.20;1.10;;;;;;;9.46;74.00;100316.50;5027934;28;20475;-48
2021/05/23 01:48:09;;;;;;;2.40;1.30;;;;;;;9.28;74.11;100312.25;5009836;28;20340;-49
2021/05/23 01:50:36;;;;;;;3.40;1.38;;;;;;;9.43;73.68;100309.56;5028573;28;20536;-48
2021/05/23 01:53:04;;;;;;;2.85;1.27;;;;;;;9.41;74.09;100321.72;5030123;28;20044;-48
2021/05/23 01:55:31;;;;;;;2.47;1.42;;;;;;;9.30;74.64;100318.31;5027611;28;20036;-50
2021/05/23 01:57:57;;;;;;;4.32;1.35;;;;;;;9.30;74.74;100318.31;5029897;28;20170;-51
2021/05/23 02:00:30;;;;;;;3.55;1.33;;;;;;;9.19;75.03;100316.66;5025670;28;20052;-48
2021/05/23 02:03:10;;;;;;;3.15;1.42;;;;;;;9.28;74.24;100314.88;5023347;28;20041;-49
2021/05/23 02:05:39;;;;;;;2.17;1.20;;;;;;;9.31;74.83;100318.31;5026279;28;20041;-49
2021/05/23 02:08:09;;;;;;;3.40;1.25;;;;;;;9.24;74.77;100316.59;5028002;28;20104;-48
2021/05/23 02:10:35;;;;;;;5.93;1.60;;;;;;;9.10;74.29;100308.84;5031599;28;20075;-49
2021/05/23 02:13:02;;;;;;;2.28;1.30;;;;;;;9.07;75.11;100310.59;5027825;28;20128;-52
2021/05/23 02:15:28;;;;;;;3.22;1.10;;;;;;;9.14;74.89;100309.72;5027238;28;20114;-49
2021/05/23 02:17:54;;;;;;;2.22;1.15;;;;;;;9.28;74.08;100314.88;5025161;28;20045;-50
2021/05/23 02:20:22;;;;;;;2.33;1.40;;;;;;;9.07;74.13;100311.47;5025761;28;20477;-52
2021/05/23 02:22:49;;;;;;;3.28;1.17;;;;;;;9.34;74.01;100318.28;5028970;28;20049;-51
2021/05/23 02:25:17;;;;;;;2.42;1.10;;;;;;;9.30;73.27;100316.56;5031064;28;20043;-50
2021/05/23 02:27:50;;;;;;;1.90;1.00;;;;;;;9.26;73.92;100314.84;5028977;28;20052;-50
2021/05/23 02:30:33;;;;;;;2.95;1.20;;;;;;;8.95;75.18;100317.59;5025927;28;20055;-50
2021/05/23 02:32:59;;;;;;;2.45;1.27;;;;;;;8.99;75.21;100314.09;5029680;28;20329;-53
2021/05/23 02:35:27;;;;;;;1.90;1.10;;;;;;;9.03;75.20;100317.59;5027282;28;20041;-50
2021/05/23 02:37:54;;;;;;;1.42;0.88;;;;;;;9.00;74.44;100315.84;5030431;28;20036;-49
2021/05/23 02:40:22;;;;;;;3.58;0.98;;;;;;;9.05;74.80;100317.56;5027307;28;20234;-50
2021/05/23 02:42:49;;;;;;;3.22;1.15;;;;;;;9.14;74.84;100313.19;5029915;28;20045;-50
2021/05/23 02:45:16;;;;;;;3.13;1.00;;;;;;;9.22;75.64;100315.75;5026998;28;20033;-49
2021/05/23 02:47:43;;;;;;;1.67;1.00;;;;;;;9.23;75.37;100316.63;5020251;28;20116;-49
2021/05/23 02:50:12;;;;;;;1.88;1.10;;;;;;;9.03;76.06;100318.44;5008837;28;20045;-49
2021/05/23 02:52:38;;;;;;;3.20;1.20;;;;;;;9.02;76.23;100326.28;5032752;28;20131;-50
2021/05/23 02:55:06;;;;;;;3.85;1.33;;;;;;;8.71;79.46;100322.88;5026498;28;20045;-49
2021/05/23 02:57:36;;;;;;;2.92;1.58;;;;;;;8.65;80.16;100316.84;5027182;28;20136;-51
2021/05/23 03:00:05;;;;;;;3.75;1.48;;;;;;;8.85;78.08;100329.78;5029688;28;20068;-50
2021/05/23 03:02:30;;;;;;;3.08;1.38;;;;;;;8.90;78.89;100334.13;5027731;28;20076;-49
2021/05/23 03:04:56;;;;;;;2.58;1.50;;;;;;;8.66;81.57;100336.78;5031258;28;20075;-50
2021/05/23 03:07:22;;;;;;;2.97;1.80;;;;;;;8.62;82.68;100336.81;5029942;28;20044;-49
2021/05/23 03:09:48;;;;;;;2.75;1.70;;;;;;;8.61;83.00;100342.88;5001008;28;20041;-54
2021/05/23 03:12:14;;;;;;;3.63;1.92;;;;;;;8.71;82.41;100351.53;5017812;28;20524;-51
2021/05/23 03:14:41;;;;;;;4.43;2.55;;;;;;;8.81;82.93;100350.66;5029504;28;20284;-48
2021/05/23 03:17:08;;;;;;;5.88;3.13;;;;;;;8.36;85.16;100353.28;5032297;28;20025;-49
2021/05/23 03:19:35;;;;;;;5.10;2.53;;;;;;;8.69;84.30;100351.56;4996234;28;20036;-49
2021/05/23 03:22:04;;;;;;;4.57;2.95;;;;;;;8.47;85.38;100364.63;5010904;28;20521;-52
2021/05/23 03:24:29;;;;;;;4.90;2.80;;;;;;;8.51;84.99;100370.69;5019324;28;20048;-51
2021/05/23 03:26:55;;;;;;;5.70;3.20;;;;;;;8.54;85.40;100372.44;5026481;28;20055;-52
2021/05/23 03:29:21;;;;;;;6.40;3.88;;;;;;;8.84;84.10;100364.53;5026094;28;20045;-51
2021/05/23 03:31:46;;;;;;;7.68;4.32;;;;;;;8.48;85.76;100374.16;5024561;28;20036;-52
2021/05/23 03:34:12;;;;;;;6.55;4.15;;;;;;;8.71;85.28;100375.88;5030662;28;20116;-51
2021/05/23 03:36:38;;;;;;;7.20;4.07;;;;;;;8.54;86.19;100373.28;5032590;28;20375;-53
2021/05/23 03:39:04;;;;;;;8.27;4.35;;;;;;;8.76;85.19;100379.34;5030319;28;20037;-52
2021/05/23 03:41:30;;;;;;;8.32;5.00;;;;;;;8.67;86.08;100379.38;5032899;28;20043;-50
2021/05/23 03:43:56;;;;;;;7.35;4.03;;;;;;;8.58;86.10;100384.59;5028427;28;20036;-53
2021/05/23 03:46:21;;;;;;;8.48;5.00;;;;;;;8.78;85.79;100377.59;5025016;28;20056;-51
2021/05/23 03:48:47;;;;;;;8.20;5.15;;;;;;;8.64;85.96;100384.56;5033816;28;20052;-54
2021/05/23 03:51:13;;;;;;;9.07;5.05;;;;;;;8.83;86.17;100383.69;5018184;28;20123;-50
2021/05/23 03:53:39;;;;;;;9.55;5.50;;;;;;;8.74;85.74;100383.69;5007988;28;20060;-50
2021/05/23 03:56:05;;;;;;;8.23;4.90;;;;;;;8.68;86.76;100391.50;5016528;28;20045;-50
2021/05/23 03:58:30;;;;;;;8.80;4.70;;;;;;;8.73;86.41;100387.16;5019352;28;20483;-51
2021/05/23 04:00:57;;;;;;;6.47;4.13;;;;;;;8.70;87.27;100392.38;4997471;28;20833;-50
2021/05/23 04:03:25;;;;;;;6.03;4.07;;;;;;;8.63;86.85;100399.34;4991065;28;20682;-51
2021/05/23 04:05:51;;;;;;;5.50;3.70;;;;;;;8.79;86.96;100400.19;5012784;28;20076;-50
2021/05/23 04:08:17;;;;;;;6.70;4.88;;;;;;;8.65;86.82;100407.16;5016417;28;20445;-50
2021/05/23 04:10:49;;;;;;;5.65;3.90;;;;;;;8.90;86.29;100412.34;4984770;28;20652;-53
2021/05/23 04:13:15;;;;;;;5.80;3.95;;;;;;;8.74;87.53;100412.38;5014344;28;20052;-50
2021/05/23 04:15:41;;;;;;;7.40;4.55;;;;;;;8.73;86.07;100421.03;5016868;28;20048;-53
2021/05/23 04:18:07;;;;;;;8.30;4.50;;;;;;;8.65;87.40;100428.88;5001740;28;20409;-50
2021/05/23 04:20:32;;;;;;;7.03;4.47;;;;;;;8.60;88.22;100429.72;4998479;28;20437;-50
2021/05/23 04:22:59;;;;;;;7.38;5.03;;;;;;;8.52;88.26;100429.75;5033453;28;20127;-50
2021/05/23 04:25:25;;;;;;;7.55;4.40;;;;;;;8.67;87.37;100439.31;5016282;28;20065;-50
2021/05/23 04:27:52;;;;;;;6.97;4.05;;;;;;;8.47;88.49;100448.00;5019557;28;20037;-51
2021/05/23 04:30:21;;;;;;;6.88;3.97;;;;;;;8.62;87.77;100443.66;4998896;28;20045;-53
2021/05/23 04:32:47;;;;;;;;;;;;;;;8.73;87.48;100438.44;5020705;28;20052;-52
2021/05/23 04:35:14;;;;;;;8.00;4.55;;;;;;;8.64;87.62;100444.50;5019284;28;19917;-52
2021/05/23 04:37:42;;;;;;;6.93;4.40;;;;;;;8.81;86.63;100450.56;5008728;28;20067;-51
2021/05/23 04:40:08;;;;;;;6.88;4.18;;;;;;;8.56;87.30;100459.28;5020242;28;20052;-50
2021/05/23 04:42:34;;;;;;;7.13;4.28;;;;;;;8.62;88.07;100454.06;5021417;28;20044;-53
2021/05/23 04:45:00;;;;;;;6.32;3.85;;;;;;;8.58;87.54;100467.97;5020608;28;20040;-51
2021/05/23 04:47:27;;;;;;;6.72;4.03;;;;;;;8.76;88.23;100470.56;5021804;28;20553;-51
2021/05/23 04:49:53;;;;;;;6.82;3.70;;;;;;;8.88;86.92;100471.44;5022858;28;20481;-53
2021/05/23 04:52:19;;;;;;;6.47;3.85;;;;;;;8.82;87.06;100469.69;5016407;28;20036;-51
2021/05/23 04:54:44;;;;;;;6.28;3.70;;;;;;;8.96;85.52;100474.91;5018431;28;20725;-53
2021/05/23 04:57:10;;;;;;;6.30;3.80;;;;;;;8.88;86.95;100480.13;5020121;28;20037;-52
2021/05/23 04:59:36;;;;;;;6.00;3.83;;;;;;;8.56;88.14;100491.41;5007219;28;20520;-52
2021/05/23 05:02:03;;;;;;;6.05;3.78;;;;;;;8.65;87.92;100495.75;5023167;28;20037;-50
2021/05/23 05:04:29;;;;;;;6.63;2.97;;;;;;;8.85;84.72;100490.56;5024035;28;20315;-52
2021/05/23 05:06:55;;;;;;;4.97;3.17;;;;;;;8.72;87.04;100487.06;5021509;28;20037;-54
2021/05/23 05:09:21;;;;;;;5.07;2.90;;;;;;;8.80;87.49;100498.34;5018940;28;20317;-49
2021/05/23 05:11:47;;;;;;;6.15;3.22;;;;;;;8.73;86.80;100501.84;5021188;28;20118;-49
2021/05/23 05:14:13;;;;;;;5.25;3.42;;;;;;;8.69;87.20;100505.31;5019001;28;20086;-53
2021/05/23 05:16:40;;;;;;;5.88;3.67;;;;;;;8.55;88.32;100512.25;5020960;28;20043;-50
2021/05/23 05:19:09;;;;;;;7.20;3.42;;;;;;;8.50;87.57;100513.13;5019643;28;20120;-50
2021/05/23 05:21:35;;;;;;;5.95;3.55;;;;;;;8.62;87.90;100514.00;5021793;28;20863;-52
2021/05/23 05:24:01;;;;;;;8.20;3.75;;;;;;;8.62;87.05;100517.47;5020697;28;20067;-50
2021/05/23 05:26:27;;;;;;;5.65;2.95;;;;;;;8.60;86.62;100519.22;5016597;28;20120;-52
2021/05/23 05:28:53;;;;;;;6.65;2.83;;;;;;;8.41;87.06;100525.25;5020783;28;20040;-50
2021/05/23 05:31:19;;;;;;;5.68;2.75;;;;;;;8.44;87.52;100522.63;5019176;28;20044;-53
2021/05/23 05:33:44;;;;;;;4.38;2.50;;;;;;;8.46;85.51;100528.72;5016741;28;20570;-50
2021/05/23 05:36:10;;;;;;;4.18;2.25;;;;;;;8.41;84.89;100533.91;5016013;28;20115;-50
2021/05/23 05:38:36;;;;;;;5.97;2.20;;;;;;;8.49;84.80;100540.03;5019817;28;20087;-50
2021/05/23 05:41:02;;;;;;;6.38;2.90;;;;;;;8.40;85.96;100545.19;5022036;28;20045;-52
2021/05/23 05:43:29;;;;;;;4.75;2.40;;;;;;;8.47;84.68;100544.38;5018969;28;20548;-49
2021/05/23 05:45:54;;;;;;;4.15;2.00;;;;;;;8.42;85.31;100540.88;5020951;28;20489;-53
2021/05/23 05:48:20;;;;;;;5.22;2.22;;;;;;;8.32;85.16;100545.19;5021150;28;20075;-50
2021/05/23 05:50:47;;;;;;;5.57;2.20;;;;;;;8.27;85.09;100549.50;5022020;28;20056;-52
2021/05/23 05:53:12;;;;;;;3.60;2.30;;;;;;;8.32;85.01;100553.00;5019584;28;20040;-52
2021/05/23 05:55:39;;;;;;;4.88;2.38;;;;;;;8.05;87.34;100552.91;5021292;28;20033;-51
2021/05/23 05:58:04;;;;;;;5.30;2.63;;;;;;;8.23;86.30;100562.53;5024186;28;20310;-53
2021/05/23 06:00:30;;;;;;;5.47;2.40;;;;;;;8.19;85.16;100559.88;4981037;28;20079;-51
2021/05/23 06:02:57;;;;;;;4.57;2.70;;;;;;;8.21;85.95;100559.03;5017788;28;20107;-52
2021/05/23 06:05:22;;;;;;;4.50;3.05;;;;;;;8.13;86.07;100559.88;5020380;28;20406;-50
2021/05/23 06:07:48;;;;;;;5.60;2.67;;;;;;;8.23;85.02;100558.19;5024548;28;20039;-49
2021/05/23 06:10:15;;;;;;;9.70;3.90;;;;;;;8.26;85.84;100570.34;5018267;28;20045;-51
2021/05/23 06:12:41;;;;;;;5.68;2.80;;;;;;;8.39;85.80;100566.91;5020584;28;20269;-51
2021/05/23 06:15:08;;;;;;;8.63;3.78;;;;;;;8.33;85.95;100572.09;5019429;28;20044;-50
2021/05/23 06:17:34;;;;;;;7.32;2.90;;;;;;;8.32;85.66;100572.94;5022055;28;20049;-50
2021/05/23 06:20:00;;;;;;;8.77;3.92;;;;;;;8.18;86.08;100579.00;5024798;28;20351;-52
2021/05/23 06:22:26;;;;;;;8.38;4.25;;;;;;;8.30;86.47;100577.31;5017175;28;20135;-52
2021/05/23 06:24:52;;;;;;;7.05;3.50;;;;;;;8.54;84.09;100578.25;5023072;28;20095;-50
2021/05/23 06:27:17;;;;;;;7.95;3.35;;;;;;;8.43;84.51;100592.13;5024504;28;20160;-52
2021/05/23 06:29:45;;;;;;;3.80;1.73;;;;;;;8.44;83.75;100593.81;5017964;28;20950;-54
2021/05/23 06:32:12;;;;;;;5.15;3.17;;;;;;;8.31;83.52;100592.06;5011188;28;20582;-53
2021/05/23 06:34:38;;;;;;;3.85;1.92;;;;;;;8.47;83.40;100599.09;5028591;28;20037;-49
2021/05/23 06:37:05;;;;;;;7.68;3.58;;;;;;;8.40;85.30;100602.50;5006063;28;20068;-51
2021/05/23 06:39:31;;;;;;;6.07;3.22;;;;;;;8.56;83.78;100610.41;5004620;28;20356;-50
2021/05/23 06:41:57;;;;;;;5.82;3.35;;;;;;;8.62;81.43;100618.25;5010831;28;20044;-50
2021/05/23 06:44:23;;;;;;;4.55;2.95;;;;;;;8.52;81.81;100620.81;5019985;28;20041;-49
2021/05/23 06:46:53;;;;;;;5.20;2.13;;;;;;;8.69;82.90;100633.00;5031148;28;20090;-51
2021/05/23 06:49:22;;;;;;;2.25;1.58;;;;;;;8.73;80.75;100633.91;5024198;28;20063;-54
2021/05/23 06:51:48;;;;;;;5.47;2.70;;;;;;;8.80;81.45;100633.91;5027656;28;20037;-50
2021/05/23 06:54:15;;;;;;;4.50;2.75;;;;;;;8.84;81.29;100627.81;5035943;28;20557;-49
2021/05/23 06:56:42;;;;;;;5.47;2.92;;;;;;;8.72;82.45;100650.41;5023875;28;20592;-49
2021/05/23 06:59:08;;;;;;;6.35;3.00;;;;;;;8.93;81.50;100641.75;5027362;28;20116;-51
2021/05/23 07:01:34;;;;;;;6.80;3.05;;;;;;;8.94;82.39;100635.69;5026338;28;20445;-50
2021/05/23 07:04:01;;;;;;;8.60;3.53;;;;;;;9.07;79.08;100644.38;5006301;28;20136;-49
2021/05/23 07:06:27;;;;;;;8.82;3.15;;;;;;;9.03;79.98;100648.72;5002568;28;20040;-51
2021/05/23 07:08:53;;;;;;;5.97;2.90;;;;;;;9.11;79.63;100647.00;5018797;28;20045;-50
2021/05/23 07:11:19;;;;;;;7.05;2.65;;;;;;;8.95;82.22;100651.31;5005725;28;20037;-51
2021/05/23 07:13:51;;;;;;;5.28;3.20;;;;;;;8.84;81.97;100648.69;5041944;28;20432;-53
2021/05/23 07:16:23;;;;;;;5.05;2.80;;;;;;;9.06;80.44;100653.09;5005061;28;20072;-50
2021/05/23 07:18:49;;;;;;;6.80;3.63;;;;;;;8.90;82.07;100652.19;5012317;28;20264;-51
2021/05/23 07:21:15;;;;;;;7.55;3.00;;;;;;;8.85;82.37;100655.66;5032250;28;20140;-51
2021/05/23 07:23:40;;;;;;;7.78;2.38;;;;;;;9.42;76.50;100660.06;5022983;28;20056;-51
2021/05/23 07:26:06;;;;;;;6.15;2.45;;;;;;;9.57;75.11;100659.19;5032274;28;20033;-54
2021/05/23 07:28:33;;;;;;;5.15;2.50;;;;;;;9.47;78.53;100654.81;5035001;28;20025;-52
2021/05/23 07:31:01;;;;;;;7.28;2.67;;;;;;;9.95;76.53;100654.78;5030587;28;20045;-52
2021/05/23 07:33:27;;;;;;;5.70;2.50;;;;;;;9.89;76.86;100655.66;5028888;28;20044;-51
2021/05/23 07:35:54;;;;;;;7.10;2.83;;;;;;;10.08;74.39;100655.59;5035255;28;20057;-49
2021/05/23 07:38:20;;;;;;;5.15;2.42;;;;;;;10.09;76.12;100658.22;5032070;28;20408;-51
2021/05/23 07:40:47;;;;;;;4.35;1.95;;;;;;;10.25;72.92;100674.72;5032125;28;20095;-53
2021/05/23 07:43:13;;;;;;;4.18;1.83;;;;;;;10.33;71.13;100659.03;5017441;28;20151;-51
2021/05/23 07:45:41;;;;;;;6.15;1.80;;;;;;;10.27;70.06;100672.09;5030075;28;20676;-50
2021/05/23 07:48:07;;;;;;;4.35;2.13;;;;;;;10.13;68.68;100678.22;5031120;28;20033;-51
2021/05/23 07:50:33;;;;;;;5.18;1.98;;;;;;;10.28;70.03;100679.06;5021572;28;20060;-52
2021/05/23 07:53:02;;;;;;;5.47;1.80;;;;;;;10.29;66.01;100672.97;5013283;28;20034;-50
2021/05/23 07:55:28;;;;;;;4.85;2.22;;;;;;;10.27;65.54;100670.34;5044992;28;20306;-49
2021/05/23 07:57:53;;;;;;;4.80;1.60;;;;;;;10.49;63.96;100679.00;5029552;28;20467;-49
2021/05/23 08:00:19;;;;;;;3.47;1.20;;;;;;;10.42;62.31;100679.91;5026640;28;20072;-49
2021/05/23 08:02:45;;;;;;;4.72;1.58;;;;;;;10.53;64.06;100685.09;5030623;28;20496;-49
2021/05/23 08:05:12;;;;;;;3.35;0.90;;;;;;;10.52;61.04;100686.84;5018641;28;20079;-51
2021/05/23 08:07:37;;;;;;;4.90;1.42;;;;;;;10.35;63.96;100693.88;5018305;28;20366;-52
2021/05/23 08:10:05;;;;;;;2.78;1.20;;;;;;;10.38;62.95;100696.47;5027685;28;20033;-49
2021/05/23 08:12:32;;;;;;;2.50;1.15;;;;;;;10.57;62.88;100690.28;5035268;28;20485;-51
2021/05/23 08:14:59;;;;;;;4.40;1.33;;;;;;;10.69;64.05;100696.38;5033383;28;20064;-50
2021/05/23 08:17:26;;;;;;;4.15;1.42;;;;;;;10.72;64.02;100705.03;5036644;28;20081;-53
2021/05/23 08:19:51;;;;;;;3.42;1.20;;;;;;;10.99;62.80;100712.75;5037640;28;20021;-50
2021/05/23 08:22:17;;;;;;;4.65;1.33;;;;;;;11.13;60.52;100710.94;5037252;28;20131;-54
2021/05/23 08:24:43;;;;;;;4.65;1.20;;;;;;;10.93;60.41;100718.03;5030961;28;20114;-50
2021/05/23 08:27:08;;;;;;;3.17;1.13;;;;;;;11.11;57.04;100717.06;5031993;28;20576;-50
2021/05/23 08:29:34;;;;;;;4.38;1.20;;;;;;;10.93;57.87;100712.81;5036248;28;20169;-50
2021/05/23 08:32:00;;;;;;;3.47;1.10;;;;;;;11.03;60.62;100717.09;5032371;28;20040;-51
2021/05/23 08:34:27;;;;;;;4.15;1.30;;;;;;;10.80;58.60;100714.59;5012913;28;20041;-50
2021/05/23 08:36:53;;;;;;;3.42;1.30;;;;;;;10.86;58.28;100709.34;5028531;28;20045;-52
2021/05/23 08:39:22;;;;;;;3.75;1.42;;;;;;;10.94;58.87;100709.28;5035854;28;20071;-50
2021/05/23 08:41:48;;;;;;;;;;;;;;;11.07;58.41;100713.59;5033766;28;20045;-49
2021/05/23 08:44:22;;;;;;;4.22;1.33;;;;;;;10.99;58.15;100718.00;5036249;28;19916;-51
2021/05/23 08:46:50;;;;;;;2.53;1.08;;;;;;;11.00;58.52;100724.97;5035100;28;20029;-51
2021/05/23 08:49:18;;;;;;;4.10;1.50;;;;;;;11.02;58.32;100724.09;5035935;28;20048;-49
2021/05/23 08:51:45;;;;;;;4.60;1.23;;;;;;;11.19;58.49;100723.97;5031391;28;20622;-52
2021/05/23 08:54:12;;;;;;;4.70;1.42;;;;;;;11.17;58.94;100732.72;5027986;28;20082;-54
2021/05/23 08:56:38;;;;;;;5.45;1.52;;;;;;;11.37;58.12;100729.97;5026281;28;20064;-51
2021/05/23 08:59:03;;;;;;;4.63;1.45;;;;;;;11.39;59.54;100739.56;5032720;28;20136;-52
2021/05/23 09:01:29;;;;;;;5.95;1.50;;;;;;;11.55;60.07;100732.44;5033154;28;20108;-50
2021/05/23 09:04:03;;;;;;;3.42;1.30;;;;;;;11.36;58.15;100736.09;5030004;28;20455;-51
2021/05/23 09:06:31;;;;;;;3.13;1.20;;;;;;;11.33;57.54;100733.50;5028767;28;20048;-51
2021/05/23 09:08:58;;;;;;;7.10;1.48;;;;;;;11.22;58.38;100742.25;5031472;28;20084;-49
2021/05/23 09:11:24;;;;;;;5.68;1.20;;;;;;;11.33;57.20;100733.50;5028814;28;21130;-50
2021/05/23 09:13:52;;;;;;;3.90;1.20;;;;;;;11.20;58.72;100735.31;5033016;28;20021;-49
2021/05/23 09:16:17;;;;;;;4.60;1.50;;;;;;;11.18;59.38;100731.84;5030867;28;20049;-49
2021/05/23 09:18:45;;;;;;;5.30;1.17;;;;;;;11.61;56.68;100733.28;5034107;28;20105;-51
2021/05/23 09:21:14;;;;;;;2.60;0.90;;;;;;;11.96;55.40;100740.00;5029097;28;20052;-50
2021/05/23 09:23:57;;;;;;;3.42;1.10;;;;;;;12.01;56.31;100738.22;5029224;28;20056;-50
2021/05/23 09:26:27;;;;;;;2.33;1.05;;;;;;;11.99;56.19;100750.44;5031001;28;20466;-50
2021/05/23 09:28:54;;;;;;;5.07;1.00;;;;;;;11.92;54.28;100747.88;5033029;28;20047;-50
2021/05/23 09:34:08;;;;;;;2.90;0.95;;;;;;;12.09;54.16;100749.50;5030933;28;20073;-51
2021/05/23 09:36:47;;;;;;;1.80;0.90;;;;;;;12.08;52.96;100745.97;5024825;28;20136;-49
2021/05/23 09:39:13;;;;;;;;;;;;;;;12.06;53.57;100752.16;5014939;28;20041;-50
2021/05/23 09:41:39;;;;;;;4.30;1.30;;;;;;;12.02;53.25;100750.44;5029707;28;19991;-51
2021/05/23 09:44:19;;;;;;;4.03;2.35;;;;;;;12.08;54.07;100756.47;5010145;28;20460;-49
2021/05/23 09:47:01;;;;;;;4.82;1.02;;;;;;;12.21;54.95;100758.97;5034671;28;20037;-50
2021/05/23 09:49:28;;;;;;;4.35;1.20;;;;;;;12.20;55.46;100765.13;5015722;28;20084;-49
2021/05/23 09:51:59;;;;;;;2.45;1.05;;;;;;;12.38;53.83;100771.94;5012891;28;20310;-50
2021/05/23 09:54:27;;;;;;;3.08;1.00;;;;;;;12.37;52.98;100762.31;5022739;28;20048;-53
2021/05/23 09:56:54;;;;;;;3.50;1.30;;;;;;;12.49;52.42;100772.66;5031081;28;20540;-50
2021/05/23 09:59:26;;;;;;;2.85;0.98;;;;;;;12.47;54.05;100771.81;5027360;28;20031;-49
2021/05/23 10:02:03;;;;;;;2.60;1.10;;;;;;;12.46;51.89;100766.59;5011519;28;20383;-52
2021/05/23 10:04:29;;;;;;;4.57;1.10;;;;;;;12.53;51.64;100773.50;5008442;28;21517;-48
2021/05/23 10:07:09;;;;;;;2.78;1.20;;;;;;;12.54;51.86;100778.72;5034039;28;20056;-49
2021/05/23 10:09:36;;;;;;;3.55;1.00;;;;;;;12.74;50.09;100794.25;5026543;28;20045;-49
2021/05/23 10:12:05;;;;;;;2.78;1.05;;;;;;;12.60;53.99;100775.19;5034609;28;20040;-51
2021/05/23 10:14:31;;;;;;;2.35;0.98;;;;;;;12.64;52.47;100776.00;5025846;28;20564;-52
2021/05/23 10:16:57;;;;;;;2.83;1.20;;;;;;;12.59;51.55;100792.66;5017182;28;20048;-49
2021/05/23 10:19:26;;;;;;;2.60;1.10;;;;;;;12.82;52.09;100782.78;5014903;28;20186;-50
2021/05/23 10:21:55;;;;;;;3.92;1.15;;;;;;;12.74;52.56;100777.66;5005049;28;20045;-53
2021/05/23 10:24:26;;;;;;;;;;;;;;;12.84;50.87;100774.00;4996536;28;20397;-51
2021/05/23 10:26:58;;;;;;;2.63;1.00;;;;;;;13.02;51.07;100787.78;5003863;28;19924;-52
2021/05/23 10:29:25;;;;;;;1.45;0.90;;;;;;;13.55;48.84;100783.56;5015491;28;20041;-51
2021/05/23 10:32:02;;;;;;;2.45;1.00;;;;;;;13.76;48.46;100784.13;5036257;28;20037;-50
2021/05/23 10:34:46;;;;;;;1.73;0.95;;;;;;;13.55;50.35;100787.97;4993834;28;20513;-51
2021/05/23 10:37:30;;;;;;;2.90;0.90;;;;;;;13.54;46.82;100791.47;5012743;28;20060;-52
2021/05/23 10:39:57;;;;;;;2.55;1.05;;;;;;;13.23;51.91;100790.13;5029277;28;20378;-50
2021/05/23 10:42:27;;;;;;;2.83;0.98;;;;;;;13.18;49.45;100797.19;5029036;28;20053;-54
2021/05/23 10:44:57;;;;;;;4.05;1.13;;;;;;;13.02;49.63;100793.91;5030544;28;20041;-50
2021/05/23 10:47:27;;;;;;;2.75;1.20;;;;;;;12.82;51.56;100806.38;5013179;28;20452;-49
2021/05/23 10:49:57;;;;;;;4.07;1.10;;;;;;;13.05;49.96;100798.25;5011277;28;20096;-50
2021/05/23 10:52:28;;;;;;;4.65;1.25;;;;;;;13.05;49.29;100793.84;5007270;28;20729;-50
2021/05/23 10:55:14;;;;;;;2.88;1.27;;;;;;;13.00;50.90;100806.19;5010175;28;20068;-51
2021/05/23 10:57:43;;;;;;;2.65;1.10;;;;;;;13.00;50.28;100800.94;5007843;28;20044;-48
2021/05/23 11:00:15;;;;;;;2.75;1.00;;;;;;;12.71;53.65;100809.13;5015123;28;20082;-50
2021/05/23 11:02:43;;;;;;;5.05;1.40;;;;;;;13.17;51.60;100794.59;5011724;28;20041;-52
2021/05/23 11:05:20;;;;;;;3.10;1.30;;;;;;;13.32;50.70;100804.00;5024514;28;20512;-50
2021/05/23 11:08:07;;;;;;;2.55;1.25;;;;;;;13.96;48.88;100802.19;5012556;28;20560;-48
2021/05/23 11:10:44;;;;;;;3.00;1.30;;;;;;;13.86;45.80;100793.59;5009260;28;20437;-49
2021/05/23 11:13:14;;;;;;;2.28;1.10;;;;;;;13.79;48.48;100797.22;5010608;28;20046;-51
2021/05/23 11:15:40;;;;;;;2.80;1.02;;;;;;;13.80;46.63;100798.94;5006637;28;20056;-48
2021/05/23 11:18:05;;;;;;;5.93;1.50;;;;;;;13.54;48.24;100797.59;5012772;28;20124;-50
2021/05/23 11:20:31;;;;;;;4.13;1.25;;;;;;;13.34;48.22;100795.22;5009541;28;20694;-49
2021/05/23 11:23:07;;;;;;;2.78;1.13;;;;;;;13.19;47.98;100801.53;5011960;28;20378;-52
2021/05/23 11:25:34;;;;;;;3.80;1.30;;;;;;;13.00;51.07;100803.56;4987775;28;21571;-48
2021/05/23 11:28:04;;;;;;;3.15;1.00;;;;;;;12.98;49.37;100807.94;5011409;28;20107;-51
2021/05/23 11:30:33;;;;;;;4.32;1.20;;;;;;;13.08;51.36;100806.97;5012624;28;20067;-49
2021/05/23 11:32:59;;;;;;;;;;;;;;;13.42;51.53;100808.28;5011007;28;20459;-49
2021/05/23 11:35:26;;;;;;;5.05;1.30;;;;;;;13.57;51.31;100805.44;5010628;28;20023;-49
2021/05/23 11:37:53;;;;;;;2.83;1.02;;;;;;;13.72;48.43;100790.31;5013719;28;20537;-51